Time;durP1;ratioP1;P1;durP2;ratioP2;P2;SDS_P1;SDS_P2;PMS_P1;PMS_P2;Temp;Humidity;BMP_temperature;BMP_pressure;BME280_temperature;BME280_humidity;BME280_pressure;Samples;Min_cycle;Max_cycle;Signal;HPM_P1;HPM_P2
2022/10/14 00:01:37;;;;;;;10.70;4.03;;;;;;;13.80;100.00;100369.81;5043747;28;20456;-62
2022/10/14 00:04:05;;;;;;;4.40;4.10;;;;;;;13.72;100.00;100361.25;5046515;28;21037;-61
2022/10/14 00:06:32;;;;;;;7.57;6.97;;;;;;;13.77;100.00;100369.94;5043693;28;20516;-61
2022/10/14 00:09:02;;;;;;;16.70;3.90;;;;;;;13.74;100.00;100365.59;5039772;28;20908;-61
2022/10/14 00:11:30;;;;;;;4.13;3.83;;;;;;;13.70;100.00;100369.31;5041731;28;20431;-61
2022/10/14 00:14:02;;;;;;;4.10;3.60;;;;;;;13.70;100.00;100360.44;5050554;28;20866;-61
2022/10/14 00:16:33;;;;;;;3.33;3.13;;;;;;;13.74;100.00;100368.28;5066164;28;20496;-61
2022/10/14 00:19:00;;;;;;;8.00;4.13;;;;;;;13.70;100.00;100361.28;5040405;28;20884;-60
2022/10/14 00:21:28;;;;;;;7.03;5.13;;;;;;;13.75;100.00;100359.34;5051905;28;20544;-61
2022/10/14 00:23:55;;;;;;;4.60;4.23;;;;;;;13.73;100.00;100363.88;5051411;28;20567;-61
2022/10/14 00:26:33;;;;;;;3.10;2.90;;;;;;;13.74;100.00;100372.75;5039468;28;20451;-61
2022/10/14 00:29:01;;;;;;;7.40;4.70;;;;;;;13.62;100.00;100366.09;5039063;28;20467;-61
2022/10/14 00:31:28;;;;;;;4.47;3.47;;;;;;;13.46;100.00;100370.31;5044537;28;20460;-60
2022/10/14 00:33:55;;;;;;;2.63;2.43;;;;;;;13.42;100.00;100364.19;5046265;28;20443;-61
2022/10/14 00:36:23;;;;;;;5.30;3.77;;;;;;;13.53;100.00;100369.13;5041240;28;20603;-61
2022/10/14 00:38:50;;;;;;;3.47;3.20;;;;;;;13.57;100.00;100370.75;5039258;28;20479;-61
2022/10/14 00:41:23;;;;;;;2.53;2.33;;;;;;;13.70;100.00;100363.97;5043690;28;20455;-61
2022/10/14 00:43:58;;;;;;;5.93;3.10;;;;;;;13.73;100.00;100369.22;5048795;28;20494;-61
2022/10/14 00:46:27;;;;;;;9.20;3.80;;;;;;;13.80;100.00;100364.47;5042251;28;20442;-61
2022/10/14 00:48:57;;;;;;;3.30;3.10;;;;;;;13.83;100.00;100362.53;5046070;28;20475;-61
2022/10/14 00:51:24;;;;;;;4.80;3.03;;;;;;;13.72;100.00;100358.59;5044832;28;20451;-61
2022/10/14 00:53:51;;;;;;;10.13;4.90;;;;;;;13.69;100.00;100356.88;5039677;28;20504;-61
2022/10/14 00:56:23;;;;;;;4.43;4.13;;;;;;;13.73;100.00;100355.00;5041140;28;20455;-60
2022/10/14 00:58:51;;;;;;;6.90;2.50;;;;;;;13.64;100.00;100354.41;5045753;28;20471;-61
2022/10/14 01:01:18;;;;;;;8.40;3.53;;;;;;;13.71;100.00;100352.38;5044179;28;20962;-61
2022/10/14 01:03:44;;;;;;;9.93;4.33;;;;;;;13.66;100.00;100361.50;5038714;28;20878;-61
2022/10/14 01:06:36;;;;;;;3.87;3.20;;;;;;;13.63;100.00;100359.81;5038774;28;20455;-60
2022/10/14 01:09:12;;;;;;;2.90;2.70;;;;;;;13.66;100.00;100358.81;5042188;28;20478;-59
2022/10/14 01:11:43;;;;;;;3.83;3.53;;;;;;;13.66;100.00;100359.69;5039220;28;20931;-58
2022/10/14 01:14:31;;;;;;;2.20;2.10;;;;;;;13.72;100.00;100354.13;5051158;28;20520;-59
2022/10/14 01:17:27;;;;;;;3.53;3.33;;;;;;;13.69;100.00;100356.88;5041849;28;20461;-59
2022/10/14 01:20:21;;;;;;;13.50;1.70;;;;;;;13.66;100.00;100366.84;5036573;28;20463;-59
2022/10/14 01:23:25;;;;;;;9.70;2.90;;;;;;;13.64;100.00;100356.22;5051261;28;20492;-59
2022/10/14 01:26:18;;;;;;;5.70;3.67;;;;;;;13.65;100.00;100357.94;5038525;28;20448;-59
2022/10/14 01:29:09;;;;;;;8.83;3.13;;;;;;;13.59;100.00;100355.53;5039676;28;20506;-59
2022/10/14 01:31:40;;;;;;;3.77;3.47;;;;;;;13.63;100.00;100351.81;5041103;28;20807;-59
2022/10/14 01:34:11;;;;;;;4.53;4.10;;;;;;;13.55;100.00;100346.75;5038078;28;21018;-60
2022/10/14 01:36:37;;;;;;;6.33;2.93;;;;;;;13.68;100.00;100348.94;5041891;28;21016;-59
2022/10/14 01:39:26;;;;;;;4.03;2.27;;;;;;;13.66;100.00;100349.00;5045304;28;20451;-59
2022/10/14 01:42:04;;;;;;;4.00;3.53;;;;;;;13.74;100.00;100344.25;5044862;28;20504;-59
2022/10/14 01:44:32;;;;;;;3.60;3.40;;;;;;;13.73;100.00;100338.97;5044938;28;20490;-59
2022/10/14 01:47:01;;;;;;;1.90;1.70;;;;;;;13.76;100.00;100333.47;5039718;28;20476;-59
2022/10/14 01:49:36;;;;;;;8.97;4.77;;;;;;;13.69;100.00;100330.19;5043218;28;20893;-59
2022/10/14 01:52:26;;;;;;;2.97;2.73;;;;;;;13.60;100.00;100330.56;5044518;28;20451;-59
2022/10/14 01:54:57;;;;;;;6.60;3.50;;;;;;;13.60;100.00;100323.44;5045211;28;20451;-59
2022/10/14 01:57:28;;;;;;;4.27;2.87;;;;;;;13.56;100.00;100315.56;5039722;28;20470;-59
2022/10/14 01:59:56;;;;;;;3.37;2.67;;;;;;;13.53;100.00;100315.72;5037921;28;20447;-59
2022/10/14 02:02:24;;;;;;;3.77;2.93;;;;;;;13.47;100.00;100316.84;5043599;28;20467;-58
2022/10/14 02:04:51;;;;;;;3.10;2.80;;;;;;;13.53;100.00;100305.91;5045128;28;20597;-59
2022/10/14 02:07:33;;;;;;;3.57;3.37;;;;;;;13.55;100.00;100303.16;5040724;28;20536;-59
2022/10/14 02:10:03;;;;;;;9.10;2.47;;;;;;;13.59;100.00;100305.66;5038924;28;20516;-59
2022/10/14 02:12:50;;;;;;;4.63;2.93;;;;;;;13.67;100.00;100301.78;5039582;28;20519;-59
2022/10/14 02:15:31;;;;;;;6.10;3.50;;;;;;;13.77;100.00;100296.00;5058281;28;20446;-59
2022/10/14 02:18:27;;;;;;;2.83;2.60;;;;;;;13.68;100.00;100288.38;5049985;28;20972;-59
2022/10/14 02:21:11;;;;;;;3.80;1.90;;;;;;;13.60;100.00;100285.16;5043413;28;20454;-59
2022/10/14 02:23:43;;;;;;;3.50;3.20;;;;;;;13.77;100.00;100277.31;5051332;28;20490;-59
2022/10/14 02:26:10;;;;;;;4.03;3.50;;;;;;;13.80;100.00;100284.31;5037771;28;20451;-59
2022/10/14 02:28:40;;;;;;;2.93;2.37;;;;;;;13.79;100.00;100278.13;5040369;28;20502;-58
2022/10/14 02:31:11;;;;;;;2.67;2.50;;;;;;;13.83;100.00;100271.69;5045174;28;20458;-59
2022/10/14 02:33:41;;;;;;;3.73;2.70;;;;;;;13.72;100.00;100263.28;5044017;28;20450;-59
2022/10/14 02:36:11;;;;;;;3.63;3.33;;;;;;;13.73;100.00;100264.16;5055630;28;20485;-60
2022/10/14 02:38:39;;;;;;;4.07;3.77;;;;;;;13.73;100.00;100259.69;5042193;28;20467;-59
2022/10/14 02:41:12;;;;;;;2.50;2.30;;;;;;;13.77;100.00;100260.41;5046562;28;20509;-59
2022/10/14 02:43:38;;;;;;;3.23;2.93;;;;;;;13.85;100.00;100259.16;5049966;28;20835;-59
2022/10/14 02:46:05;;;;;;;4.23;3.93;;;;;;;13.84;100.00;100253.84;5047163;28;20451;-59
2022/10/14 02:48:31;;;;;;;4.50;4.10;;;;;;;13.82;100.00;100253.06;5048715;28;20585;-59
2022/10/14 02:50:59;;;;;;;6.00;2.97;;;;;;;13.84;100.00;100248.50;5044130;28;20454;-60
2022/10/14 02:53:26;;;;;;;7.73;6.13;;;;;;;13.87;100.00;100246.59;5041957;28;20447;-60
2022/10/14 02:55:52;;;;;;;11.70;3.87;;;;;;;13.83;100.00;100238.75;5047221;28;20447;-59
2022/10/14 02:58:19;;;;;;;4.27;3.80;;;;;;;13.78;100.00;100238.09;5048306;28;20528;-59
2022/10/14 03:00:48;;;;;;;9.27;3.03;;;;;;;13.82;100.00;100234.34;5041930;28;20451;-59
2022/10/14 03:03:14;;;;;;;3.63;3.33;;;;;;;13.87;100.00;100232.38;5039313;28;20537;-59
2022/10/14 03:05:41;;;;;;;4.47;4.27;;;;;;;13.86;100.00;100226.16;5043142;28;20498;-59
2022/10/14 03:08:08;;;;;;;3.43;3.13;;;;;;;13.87;100.00;100224.38;5059954;22;21264;-56
2022/10/14 03:10:34;;;;;;;5.23;4.73;;;;;;;13.90;100.00;100233.09;5023767;28;20963;-55
2022/10/14 03:13:00;;;;;;;4.13;3.83;;;;;;;13.92;100.00;100239.25;5028542;28;20433;-56
2022/10/14 03:15:27;;;;;;;3.63;3.43;;;;;;;13.87;100.00;100229.72;5024606;28;20496;-56
2022/10/14 03:17:53;;;;;;;3.53;3.23;;;;;;;13.88;100.00;100240.31;5035405;28;20459;-55
2022/10/14 03:20:20;;;;;;;5.23;4.53;;;;;;;13.78;100.00;100225.63;5031962;28;20451;-55
2022/10/14 03:22:46;;;;;;;9.03;4.93;;;;;;;13.77;100.00;100225.69;5019417;28;20458;-55
2022/10/14 03:25:12;;;;;;;4.00;3.70;;;;;;;13.74;100.00;100225.81;5032101;28;20625;-55
2022/10/14 03:27:39;;;;;;;13.63;6.13;;;;;;;13.78;100.00;100214.06;5031815;28;20932;-55
2022/10/14 03:30:06;;;;;;;9.43;4.83;;;;;;;13.84;100.00;100217.34;5032002;28;20494;-55
2022/10/14 03:32:32;;;;;;;4.43;4.13;;;;;;;13.85;100.00;100221.75;5031833;28;20505;-55
2022/10/14 03:34:59;;;;;;;6.63;5.07;;;;;;;13.90;100.00;100225.09;5032099;28;20509;-55
2022/10/14 03:37:25;;;;;;;13.83;4.80;;;;;;;13.93;100.00;100221.41;5032026;28;20456;-55
2022/10/14 03:39:52;;;;;;;4.00;3.70;;;;;;;13.94;100.00;100221.34;5032128;28;20564;-56
2022/10/14 03:42:18;;;;;;;17.10;5.83;;;;;;;13.94;100.00;100220.47;5031882;28;20455;-55
2022/10/14 03:44:45;;;;;;;13.00;4.17;;;;;;;13.87;100.00;100224.38;5027092;28;20499;-55
2022/10/14 03:47:12;;;;;;;4.87;4.47;;;;;;;13.83;100.00;100220.06;5031741;28;20497;-55
2022/10/14 03:49:38;;;;;;;4.10;3.80;;;;;;;13.84;100.00;100220.03;5031329;28;20828;-55
2022/10/14 03:52:04;;;;;;;5.57;5.17;;;;;;;13.81;100.00;100220.13;5031869;28;20951;-55
2022/10/14 03:54:31;;;;;;;16.20;4.63;;;;;;;13.96;100.00;100215.94;5014040;28;20508;-55
2022/10/14 03:56:57;;;;;;;4.70;4.40;;;;;;;13.98;100.00;100218.53;5031623;28;20451;-55
2022/10/14 03:59:24;;;;;;;5.10;4.70;;;;;;;14.02;100.00;100212.13;5031411;28;20909;-55
2022/10/14 04:01:50;;;;;;;4.03;3.73;;;;;;;14.01;100.00;100207.72;5031368;28;20456;-55
2022/10/14 04:04:17;;;;;;;11.00;5.50;;;;;;;13.99;100.00;100210.47;5031122;28;20527;-55
2022/10/14 04:06:43;;;;;;;16.27;4.10;;;;;;;13.96;100.00;100204.38;5031443;28;20430;-55
2022/10/14 04:09:09;;;;;;;10.03;4.23;;;;;;;14.04;100.00;100211.13;5031269;28;20498;-56
2022/10/14 04:11:36;;;;;;;6.00;4.80;;;;;;;14.01;100.00;100211.28;5031239;28;20510;-56
2022/10/14 04:14:02;;;;;;;12.17;5.33;;;;;;;14.03;100.00;100219.22;5021755;28;20828;-55
2022/10/14 04:16:29;;;;;;;7.03;4.57;;;;;;;13.93;100.00;100219.59;5029498;28;20456;-55
2022/10/14 04:18:57;;;;;;;7.40;3.83;;;;;;;13.91;100.00;100204.59;5031161;28;20534;-55
2022/10/14 04:21:23;;;;;;;7.30;3.90;;;;;;;13.93;100.00;100192.88;5026031;28;20452;-55
2022/10/14 04:23:50;;;;;;;7.10;6.47;;;;;;;13.96;100.00;100205.22;5023283;28;20456;-55
2022/10/14 04:26:17;;;;;;;7.50;4.30;;;;;;;13.97;100.00;100203.44;5030943;28;20459;-55
2022/10/14 04:28:43;;;;;;;6.17;5.40;;;;;;;13.97;100.00;100200.75;5030908;28;21063;-55
2022/10/14 04:31:09;;;;;;;5.50;4.70;;;;;;;13.93;100.00;100202.69;5030611;28;20448;-55
2022/10/14 04:33:36;;;;;;;3.63;3.53;;;;;;;13.93;100.00;100192.88;5030891;28;20463;-55
2022/10/14 04:36:04;;;;;;;4.70;4.30;;;;;;;13.91;100.00;100184.06;5030787;28;20504;-55
2022/10/14 04:38:32;;;;;;;6.67;5.90;;;;;;;13.79;100.00;100176.59;5030798;28;20472;-55
2022/10/14 04:40:58;;;;;;;5.77;5.37;;;;;;;13.67;100.00;100177.13;5030677;28;20529;-56
2022/10/14 04:43:25;;;;;;;11.97;4.87;;;;;;;13.74;100.00;100175.06;5026293;28;20452;-55
2022/10/14 04:45:51;;;;;;;6.60;5.47;;;;;;;13.72;100.00;100176.94;5030195;28;20496;-55
2022/10/14 04:48:17;;;;;;;13.60;7.30;;;;;;;13.80;100.00;100175.66;5030583;28;20479;-56
2022/10/14 04:50:44;;;;;;;11.17;5.27;;;;;;;13.82;100.00;100178.25;5030491;28;20455;-55
2022/10/14 04:53:11;;;;;;;7.20;4.80;;;;;;;13.82;100.00;100172.91;5030517;28;20482;-56
2022/10/14 04:55:40;;;;;;;11.37;5.27;;;;;;;13.82;100.00;100176.44;5030473;28;20483;-55
2022/10/14 04:58:06;;;;;;;10.63;5.40;;;;;;;13.85;100.00;100179.00;5030153;28;20471;-56
2022/10/14 05:00:32;;;;;;;4.80;4.13;;;;;;;13.83;100.00;100171.97;5030679;28;20514;-55
2022/10/14 05:02:59;;;;;;;6.80;6.20;;;;;;;13.85;100.00;100172.78;5030456;28;20513;-55
2022/10/14 05:05:25;;;;;;;8.30;4.80;;;;;;;13.83;100.00;100171.97;5030128;28;20502;-55
2022/10/14 05:07:52;;;;;;;7.90;6.73;;;;;;;13.82;100.00;100172.91;5030145;28;20455;-56
2022/10/14 05:10:18;;;;;;;5.37;4.80;;;;;;;13.81;100.00;100171.16;5004221;28;20498;-55
2022/10/14 05:12:44;;;;;;;5.90;5.30;;;;;;;13.82;100.00;100176.44;5030031;28;21094;-56
2022/10/14 05:15:11;;;;;;;12.33;8.80;;;;;;;13.83;100.00;100172.84;5016960;28;20509;-56
2022/10/14 05:17:38;;;;;;;4.33;4.03;;;;;;;14.13;100.00;100172.44;5029908;28;20456;-55
2022/10/14 05:20:05;;;;;;;8.30;5.87;;;;;;;14.03;100.00;100166.63;5030153;28;20465;-55
2022/10/14 05:22:32;;;;;;;9.63;5.63;;;;;;;13.93;100.00;100174.19;5017099;28;20460;-56
2022/10/14 05:24:59;;;;;;;5.20;4.70;;;;;;;13.89;100.00;100169.91;5029750;28;20542;-56
2022/10/14 05:27:25;;;;;;;6.03;5.40;;;;;;;13.84;100.00;100165.69;5029623;28;20452;-55
2022/10/14 05:29:52;;;;;;;6.40;5.63;;;;;;;13.73;100.00;100160.84;5029797;28;20980;-55
2022/10/14 05:32:18;;;;;;;6.83;5.77;;;;;;;13.79;100.00;100157.88;5030054;28;20932;-56
2022/10/14 05:34:45;;;;;;;6.53;5.93;;;;;;;13.81;100.00;100158.69;5029788;28;20827;-55
2022/10/14 05:37:11;;;;;;;6.57;5.57;;;;;;;13.80;100.00;100153.41;5029664;28;20535;-55
2022/10/14 05:39:38;;;;;;;5.90;5.00;;;;;;;13.76;100.00;100152.69;5029580;28;20475;-55
2022/10/14 05:42:04;;;;;;;6.90;3.60;;;;;;;13.78;100.00;100150.81;5029316;28;20510;-55
2022/10/14 05:44:31;;;;;;;8.07;4.73;;;;;;;13.77;100.00;100153.56;5007181;28;20960;-55
2022/10/14 05:46:57;;;;;;;8.90;4.83;;;;;;;13.79;100.00;100155.22;5029624;28;20456;-56
2022/10/14 05:49:24;;;;;;;5.57;4.73;;;;;;;13.82;100.00;100156.88;5029434;28;20471;-55
2022/10/14 05:51:50;;;;;;;5.27;4.67;;;;;;;13.85;100.00;100154.09;5029260;28;20827;-55
2022/10/14 05:54:16;;;;;;;6.70;6.10;;;;;;;13.84;100.00;100144.31;5029168;28;21001;-55
2022/10/14 05:56:43;;;;;;;4.80;4.50;;;;;;;13.85;100.00;100151.41;5029008;28;20458;-56
2022/10/14 05:59:10;;;;;;;5.80;5.40;;;;;;;13.80;100.00;100151.59;5029154;28;20475;-55
2022/10/14 06:01:37;;;;;;;5.33;4.87;;;;;;;13.79;100.00;100146.34;5011364;28;20877;-55
2022/10/14 06:04:04;;;;;;;19.27;6.30;;;;;;;13.79;100.00;100149.88;5029602;28;20444;-55
2022/10/14 06:06:30;;;;;;;7.87;6.17;;;;;;;13.72;100.00;100142.22;5029063;28;20470;-55
2022/10/14 06:08:56;;;;;;;7.80;5.67;;;;;;;13.79;100.00;100141.00;5027896;28;20545;-55
2022/10/14 06:11:23;;;;;;;14.07;7.10;;;;;;;13.88;100.00;100140.59;5029175;28;20460;-55
2022/10/14 06:13:50;;;;;;;11.10;8.93;;;;;;;13.83;100.00;100137.22;5021641;28;20461;-55
2022/10/14 06:16:17;;;;;;;8.50;7.60;;;;;;;13.87;100.00;100137.06;5025830;28;20455;-56
2022/10/14 06:18:43;;;;;;;10.93;6.70;;;;;;;13.92;100.00;100143.03;5028921;28;20521;-55
2022/10/14 06:21:11;;;;;;;17.03;7.67;;;;;;;13.99;100.00;100142.78;5025884;28;20456;-55
2022/10/14 06:23:37;;;;;;;7.83;7.07;;;;;;;14.06;100.00;100129.06;5019200;28;20455;-55
2022/10/14 06:26:05;;;;;;;10.30;7.17;;;;;;;14.04;100.00;100135.41;5029009;28;20561;-55
2022/10/14 06:28:31;;;;;;;5.70;5.17;;;;;;;14.06;100.00;100128.19;5029019;28;20529;-55
2022/10/14 06:30:58;;;;;;;9.60;5.30;;;;;;;14.16;100.00;100134.88;5028875;28;20542;-55
2022/10/14 06:33:29;;;;;;;4.90;3.43;;;;;;;14.19;100.00;100126.69;5028791;28;20459;-55
2022/10/14 06:35:55;;;;;;;4.70;4.40;;;;;;;14.19;100.00;100114.19;5028672;28;20812;-55
2022/10/14 06:38:22;;;;;;;4.53;4.23;;;;;;;14.21;100.00;100127.50;5028760;28;21000;-56
2022/10/14 06:40:50;;;;;;;7.43;5.70;;;;;;;14.24;100.00;100132.69;5028605;28;20507;-55
2022/10/14 06:43:17;;;;;;;13.97;6.57;;;;;;;14.29;100.00;100128.00;5025831;28;20456;-55
2022/10/14 06:45:44;;;;;;;8.40;6.17;;;;;;;14.33;100.00;100134.09;5027949;28;20500;-56
2022/10/14 06:48:11;;;;;;;6.20;4.80;;;;;;;14.34;100.00;100128.66;5028801;28;20531;-55
2022/10/14 06:50:37;;;;;;;8.77;6.90;;;;;;;14.35;100.00;100127.72;5028448;28;20452;-55
2022/10/14 06:53:04;;;;;;;12.37;7.50;;;;;;;14.37;100.00;100125.84;5028938;28;20466;-54
2022/10/14 06:55:31;;;;;;;7.53;6.80;;;;;;;14.40;100.00;100124.84;5011209;28;20455;-55
2022/10/14 06:57:57;;;;;;;8.47;5.83;;;;;;;14.44;100.00;100126.47;5028860;28;20472;-55
2022/10/14 07:00:24;;;;;;;15.67;5.20;;;;;;;14.52;100.00;100129.63;5028454;28;20455;-54
2022/10/14 07:02:50;;;;;;;10.90;6.40;;;;;;;14.56;100.00;100123.22;5028627;28;20430;-55
2022/10/14 07:05:16;;;;;;;7.23;5.93;;;;;;;14.57;100.00;100122.28;5002105;28;20874;-55
2022/10/14 07:07:43;;;;;;;5.50;5.20;;;;;;;14.62;100.00;100127.38;5028572;28;20455;-55
2022/10/14 07:10:09;;;;;;;4.77;4.37;;;;;;;14.66;100.00;100127.16;5002664;28;20455;-56
2022/10/14 07:12:36;;;;;;;5.70;5.13;;;;;;;14.70;100.00;100131.44;5028542;28;20455;-56
2022/10/14 07:15:03;;;;;;;11.00;8.03;;;;;;;14.75;100.00;100120.50;5017772;28;20868;-55
2022/10/14 07:17:30;;;;;;;8.63;7.00;;;;;;;14.73;100.00;100114.38;5028503;28;20525;-55
2022/10/14 07:19:56;;;;;;;5.50;5.00;;;;;;;14.91;100.00;100115.28;5002742;28;20472;-55
2022/10/14 07:22:23;;;;;;;22.77;8.20;;;;;;;14.89;100.00;100110.00;5019748;28;20511;-55
2022/10/14 07:24:50;;;;;;;18.67;6.00;;;;;;;14.96;100.00;100113.25;5014778;28;20904;-55
2022/10/14 07:27:19;;;;;;;8.10;5.63;;;;;;;15.04;100.00;100111.91;5032516;28;20455;-55
2022/10/14 07:29:46;;;;;;;5.40;4.57;;;;;;;15.02;100.00;100115.63;5032491;28;20498;-55
2022/10/14 07:32:12;;;;;;;6.70;6.00;;;;;;;15.00;100.00;100112.16;5031984;28;20451;-55
2022/10/14 07:34:39;;;;;;;42.70;6.53;;;;;;;15.05;100.00;100120.81;5031854;28;20840;-55
2022/10/14 07:37:05;;;;;;;4.23;3.93;;;;;;;15.14;100.00;100120.38;5032032;28;20451;-55
2022/10/14 07:39:32;;;;;;;10.53;5.60;;;;;;;14.82;100.00;100120.16;5031886;28;20467;-55
2022/10/14 07:41:59;;;;;;;6.43;4.20;;;;;;;14.99;100.00;100124.66;5031717;28;20490;-53
2022/10/14 07:44:25;;;;;;;6.27;5.83;;;;;;;15.06;100.00;100123.41;5027310;28;20509;-55
2022/10/14 07:46:53;;;;;;;11.87;4.33;;;;;;;15.08;100.00;100126.91;5031633;28;20499;-56
2022/10/14 07:49:21;;;;;;;4.53;4.00;;;;;;;15.21;100.00;100129.81;5031997;28;21281;-56
2022/10/14 07:51:47;;;;;;;17.23;4.07;;;;;;;15.14;100.00;100122.16;5032006;28;20945;-55
2022/10/14 07:54:22;;;;;;;7.40;5.10;;;;;;;15.08;100.00;100124.22;5031771;28;20479;-55
2022/10/14 07:56:49;;;;;;;10.53;4.80;;;;;;;15.09;100.00;100117.06;5031284;28;20413;-56
2022/10/14 07:59:19;;;;;;;4.90;4.53;;;;;;;15.13;100.00;100113.28;5031332;28;20899;-56
2022/10/14 08:01:47;;;;;;;11.43;5.53;;;;;;;15.13;100.00;100115.09;5031248;28;21040;-55
2022/10/14 08:04:14;;;;;;;4.47;4.17;;;;;;;15.23;100.00;100106.53;5031408;28;20451;-56
2022/10/14 08:06:40;;;;;;;19.57;4.97;;;;;;;15.14;100.00;100115.00;5031263;28;20499;-55
2022/10/14 08:09:09;;;;;;;4.67;4.27;;;;;;;15.24;100.00;100118.97;5031394;28;20518;-55
2022/10/14 08:11:36;;;;;;;3.67;3.37;;;;;;;15.23;100.00;100111.88;5031107;28;20459;-55
2022/10/14 08:14:04;;;;;;;5.70;4.13;;;;;;;15.22;100.00;100115.50;5021554;28;20465;-55
2022/10/14 08:16:33;;;;;;;15.53;4.00;;;;;;;15.08;100.00;100109.97;5029566;28;20945;-55
2022/10/14 08:19:03;;;;;;;6.10;4.50;;;;;;;15.15;100.00;100106.03;5031053;28;20899;-55
2022/10/14 08:21:29;;;;;;;4.23;3.83;;;;;;;15.11;100.00;100112.50;5025458;28;20932;-55
2022/10/14 08:23:56;;;;;;;5.07;3.80;;;;;;;15.05;100.00;100110.97;5024227;28;20463;-54
2022/10/14 08:26:29;;;;;;;7.70;4.17;;;;;;;15.10;100.00;100114.31;5031267;28;20487;-55
2022/10/14 08:28:58;;;;;;;5.40;4.83;;;;;;;15.06;100.00;100110.03;5031383;28;20468;-55
2022/10/14 08:31:24;;;;;;;10.40;3.87;;;;;;;15.11;100.00;100108.00;5012896;28;20610;-55
2022/10/14 08:33:51;;;;;;;3.50;3.30;;;;;;;15.11;100.00;100108.00;5030284;28;20447;-54
2022/10/14 08:36:18;;;;;;;4.23;3.97;;;;;;;15.19;100.00;100107.59;5030717;28;20452;-55
2022/10/14 08:38:45;;;;;;;7.57;4.43;;;;;;;15.28;100.00;100111.63;5030605;28;20610;-55
2022/10/14 08:41:11;;;;;;;12.10;4.57;;;;;;;15.35;100.00;100108.56;5031031;28;20455;-55
2022/10/14 08:43:50;;;;;;;5.50;3.80;;;;;;;15.56;100.00;100101.22;5025866;28;21062;-55
2022/10/14 08:46:29;;;;;;;7.30;3.97;;;;;;;15.61;100.00;100104.56;5030646;28;20886;-55
2022/10/14 08:49:07;;;;;;;5.13;4.63;;;;;;;15.78;100.00;100100.16;5030347;28;20451;-55
2022/10/14 08:51:33;;;;;;;4.40;4.20;;;;;;;15.93;100.00;100093.97;5030318;28;20447;-55
2022/10/14 08:54:08;;;;;;;10.27;5.17;;;;;;;15.92;100.00;100102.97;4987142;28;20486;-55
2022/10/14 08:56:36;;;;;;;3.13;2.97;;;;;;;16.05;100.00;100092.44;5030465;28;20496;-55
2022/10/14 08:59:18;;;;;;;5.90;3.93;;;;;;;15.98;100.00;100102.63;5030350;28;20505;-55
2022/10/14 09:01:54;;;;;;;5.27;4.87;;;;;;;16.10;100.00;100091.22;5030344;28;20451;-55
2022/10/14 09:04:20;;;;;;;16.00;5.37;;;;;;;16.05;100.00;100087.94;5030110;28;21060;-55
2022/10/14 09:06:49;;;;;;;5.93;5.43;;;;;;;16.13;100.00;100096.41;5030150;28;20492;-56
2022/10/14 09:09:25;;;;;;;4.77;4.30;;;;;;;16.38;100.00;100092.38;5030833;28;20514;-56
2022/10/14 09:11:57;;;;;;;4.37;3.97;;;;;;;16.39;100.00;100094.13;5023765;28;20495;-56
2022/10/14 09:14:29;;;;;;;5.07;4.40;;;;;;;16.53;100.00;100089.72;5014436;28;20444;-56
2022/10/14 09:17:04;;;;;;;10.47;6.27;;;;;;;16.20;100.00;100078.19;5030207;28;20481;-56
2022/10/14 09:19:38;;;;;;;10.13;5.70;;;;;;;16.21;100.00;100069.19;5029828;28;20467;-56
2022/10/14 09:22:11;;;;;;;8.73;5.17;;;;;;;16.33;100.00;100079.25;5019535;28;20453;-56
2022/10/14 09:24:38;;;;;;;4.33;4.03;;;;;;;16.49;100.00;100068.50;5024024;28;20479;-56
2022/10/14 09:27:15;;;;;;;4.30;3.60;;;;;;;16.58;100.00;100059.91;5022319;28;20528;-56
2022/10/14 09:29:44;;;;;;;3.63;3.00;;;;;;;16.68;100.00;100060.31;5023124;28;20501;-56
2022/10/14 09:32:51;;;;;;;12.27;3.87;;;;;;;16.71;100.00;100052.94;5024190;28;20501;-56
2022/10/14 09:35:32;;;;;;;3.43;3.23;;;;;;;17.10;100.00;100054.25;5029485;28;20481;-56
2022/10/14 09:37:58;;;;;;;3.80;3.30;;;;;;;16.69;100.00;100054.84;5007173;28;20442;-56
2022/10/14 09:40:35;;;;;;;3.67;2.83;;;;;;;16.73;100.00;100050.19;5016468;28;20944;-56
2022/10/14 09:43:07;;;;;;;4.10;3.80;;;;;;;16.99;100.00;100052.19;5028612;28;20453;-56
2022/10/14 09:45:54;;;;;;;9.50;4.43;;;;;;;16.93;100.00;100049.00;5009719;28;20923;-56
2022/10/14 09:48:32;;;;;;;3.50;3.30;;;;;;;16.66;100.00;100043.41;5029567;28;21009;-56
2022/10/14 09:51:01;;;;;;;8.20;3.87;;;;;;;16.50;100.00;100035.34;5029656;28;20432;-56
2022/10/14 09:53:32;;;;;;;7.20;4.13;;;;;;;16.54;100.00;100037.78;5029443;28;20457;-56
2022/10/14 09:56:01;;;;;;;4.93;4.63;;;;;;;16.58;100.00;100027.72;5029754;28;20501;-56
2022/10/14 09:58:42;;;;;;;7.23;3.97;;;;;;;16.40;100.00;100028.78;5016452;28;20450;-56
2022/10/14 10:01:18;;;;;;;24.63;4.30;;;;;;;16.48;100.00;100026.53;5029890;28;20835;-56
2022/10/14 10:03:45;;;;;;;7.73;4.87;;;;;;;16.45;100.00;100027.59;4997966;28;20797;-56
2022/10/14 10:06:15;;;;;;;5.43;4.63;;;;;;;16.61;100.00;100030.25;5023220;28;20964;-56
2022/10/14 10:09:00;;;;;;;4.70;4.30;;;;;;;16.84;100.00;100035.16;5017812;28;20487;-56
2022/10/14 10:11:38;;;;;;;10.20;4.37;;;;;;;16.59;100.00;100029.47;5029407;28;20429;-56
2022/10/14 10:14:22;;;;;;;4.70;3.57;;;;;;;16.51;100.00;100019.16;5016922;28;20448;-56
2022/10/14 10:16:50;;;;;;;9.53;5.97;;;;;;;16.07;100.00;100019.00;5005105;28;21018;-56
2022/10/14 10:19:33;;;;;;;5.17;4.67;;;;;;;16.32;100.00;100020.31;5029144;28;20453;-56
2022/10/14 10:22:18;;;;;;;8.70;4.13;;;;;;;16.30;100.00;100018.56;5019353;28;20957;-57
2022/10/14 10:24:46;;;;;;;8.53;5.07;;;;;;;16.24;100.00;100015.38;5028793;28;20505;-56
2022/10/14 10:27:24;;;;;;;11.47;4.40;;;;;;;16.10;100.00;100024.19;5028927;28;20522;-56
2022/10/14 10:29:53;;;;;;;6.50;4.70;;;;;;;16.24;100.00;100020.75;4997082;28;21005;-56
2022/10/14 10:32:37;;;;;;;4.67;4.27;;;;;;;16.19;100.00;100021.00;5023587;28;20505;-56
2022/10/14 10:35:47;;;;;;;8.33;5.20;;;;;;;16.29;100.00;100021.34;5029043;28;20455;-56
2022/10/14 10:38:22;;;;;;;6.10;4.60;;;;;;;16.40;100.00;100012.69;4958789;28;21030;-56
2022/10/14 10:41:20;;;;;;;5.67;5.20;;;;;;;16.40;100.00;100013.53;5029101;28;20446;-56
2022/10/14 10:43:52;;;;;;;5.83;4.50;;;;;;;16.33;100.00;100008.63;4989927;28;20557;-56
2022/10/14 10:46:56;;;;;;;27.23;5.40;;;;;;;16.36;100.00;100000.41;5029279;28;20484;-56
2022/10/14 10:49:56;;;;;;;5.47;4.93;;;;;;;16.37;100.00;99986.03;5003210;28;20483;-56
2022/10/14 10:52:56;;;;;;;17.33;3.43;;;;;;;16.33;100.00;99996.09;5028615;28;20448;-56
2022/10/14 10:55:45;;;;;;;7.10;4.27;;;;;;;16.20;100.00;99987.88;5029821;28;20884;-56
2022/10/14 10:58:26;;;;;;;6.13;5.57;;;;;;;16.30;100.00;99988.19;5032853;28;20503;-56
2022/10/14 11:01:03;;;;;;;8.20;6.63;;;;;;;16.34;100.00;99983.53;5032518;28;20517;-56
2022/10/14 11:03:52;;;;;;;6.53;5.33;;;;;;;16.28;100.00;99982.91;5032916;28;20481;-56
2022/10/14 11:12:32;;;;;;;8.23;6.13;;;;;;;16.17;100.00;99973.75;4974972;28;20933;-56
2022/10/14 11:15:10;;;;;;;6.03;5.40;;;;;;;16.13;100.00;99967.69;5021318;28;21014;-56
2022/10/14 11:17:44;;;;;;;6.30;5.70;;;;;;;16.11;100.00;99966.94;5014725;28;20422;-56
2022/10/14 11:20:30;;;;;;;7.70;5.80;;;;;;;16.04;100.00;99960.19;5032503;28;20421;-56
2022/10/14 11:23:06;;;;;;;15.87;7.57;;;;;;;16.02;100.00;99958.53;5019789;28;20792;-56
2022/10/14 11:25:48;;;;;;;6.23;5.80;;;;;;;16.04;100.00;99959.31;5032247;28;20451;-56
2022/10/14 11:28:28;;;;;;;7.73;7.23;;;;;;;15.96;100.00;99959.75;5009623;28;20467;-56
2022/10/14 11:31:26;;;;;;;6.27;5.77;;;;;;;16.06;100.00;99952.06;5031949;28;20971;-56
2022/10/14 11:34:38;;;;;;;11.03;5.63;;;;;;;15.92;100.00;99958.19;5031311;28;20437;-56
2022/10/14 11:37:34;;;;;;;14.93;5.23;;;;;;;15.95;100.00;99950.84;5032948;28;20468;-56
2022/10/14 11:40:17;;;;;;;5.37;4.87;;;;;;;15.92;100.00;99951.03;5032567;28;20537;-56
2022/10/14 11:42:56;;;;;;;5.60;5.20;;;;;;;15.95;100.00;99944.63;5032590;28;20448;-57